createdAt,value
2018-08-28T00:00:19.267Z,2.87
2018-08-28T00:02:47.604Z,2.90
2018-08-28T00:05:15.818Z,3.33
2018-08-28T00:07:44.102Z,4.13
2018-08-28T00:10:12.388Z,3.17
2018-08-28T00:12:40.811Z,3.47
2018-08-28T00:15:09.112Z,3.47
2018-08-28T00:17:37.368Z,3.20
2018-08-28T00:20:05.764Z,3.33
2018-08-28T00:22:34.021Z,2.77
2018-08-28T00:25:02.594Z,3.27
2018-08-28T00:27:30.918Z,2.97
2018-08-28T00:29:59.139Z,3.60
2018-08-28T00:32:27.456Z,2.67
2018-08-28T00:34:55.731Z,2.60
2018-08-28T00:37:24.101Z,2.83
2018-08-28T00:39:52.638Z,3.83
2018-08-28T00:42:20.801Z,3.13
2018-08-28T00:44:49.015Z,3.37
2018-08-28T00:47:17.301Z,3.03
2018-08-28T00:49:45.580Z,3.40
2018-08-28T00:52:13.819Z,3.00
2018-08-28T00:54:42.128Z,3.17
2018-08-28T00:57:10.409Z,3.30
2018-08-28T00:59:38.635Z,3.10
2018-08-28T01:02:06.895Z,2.77
2018-08-28T01:04:35.154Z,3.70
2018-08-28T01:07:03.543Z,3.10
2018-08-28T01:09:31.708Z,2.70
2018-08-28T01:11:59.982Z,3.27
2018-08-28T01:14:28.190Z,3.30
2018-08-28T01:16:56.554Z,2.60
2018-08-28T01:19:24.828Z,3.03
2018-08-28T01:21:53.189Z,3.00
2018-08-28T01:24:21.398Z,3.33
2018-08-28T01:26:49.662Z,3.10
2018-08-28T01:29:17.932Z,3.23
2018-08-28T01:31:46.211Z,2.80
2018-08-28T01:34:14.488Z,3.30
2018-08-28T01:36:42.734Z,2.93
2018-08-28T01:39:10.956Z,3.20
2018-08-28T01:41:39.171Z,2.90
2018-08-28T01:44:07.418Z,3.47
2018-08-28T01:46:35.677Z,3.40
2018-08-28T01:49:04.043Z,3.20
2018-08-28T01:51:32.274Z,3.60
2018-08-28T01:54:00.517Z,3.00
2018-08-28T01:56:28.789Z,3.37
2018-08-28T01:58:56.995Z,3.30
2018-08-28T02:01:25.364Z,3.47
2018-08-28T02:03:53.610Z,4.03
2018-08-28T02:06:21.851Z,3.30
2018-08-28T02:08:50.118Z,3.57
2018-08-28T02:11:18.356Z,4.00
2018-08-28T02:13:46.653Z,3.00
2018-08-28T02:16:15.024Z,3.40
2018-08-28T02:18:43.160Z,3.40
2018-08-28T02:21:11.379Z,3.60
2018-08-28T02:23:39.600Z,3.97
2018-08-28T02:26:07.881Z,3.00
2018-08-28T02:28:36.096Z,4.13
2018-08-28T02:31:04.345Z,4.10
2018-08-28T02:33:32.504Z,4.33
2018-08-28T02:36:01.327Z,3.50
2018-08-28T02:38:29.498Z,4.00
2018-08-28T02:40:57.745Z,3.30
2018-08-28T02:43:26.097Z,3.63
2018-08-28T02:45:54.329Z,3.20
2018-08-28T02:48:22.528Z,3.63
2018-08-28T02:50:50.766Z,3.80
2018-08-28T02:53:19.046Z,3.40
2018-08-28T02:55:47.202Z,3.50
2018-08-28T02:58:15.477Z,3.80
2018-08-28T03:00:43.745Z,3.60
2018-08-28T03:03:12.021Z,3.40
2018-08-28T03:05:40.328Z,3.23
2018-08-28T03:08:08.569Z,3.40
2018-08-28T03:10:36.850Z,3.27
2018-08-28T03:13:05.119Z,3.40
2018-08-28T03:15:33.463Z,3.00
2018-08-28T03:18:01.696Z,3.50
2018-08-28T03:20:29.881Z,3.30
2018-08-28T03:22:58.153Z,3.50
2018-08-28T03:25:26.388Z,3.13
2018-08-28T03:27:54.678Z,3.63
2018-08-28T03:30:22.994Z,3.47
2018-08-28T03:32:51.273Z,3.50
2018-08-28T03:35:19.477Z,3.80
2018-08-28T03:37:47.694Z,3.30
2018-08-28T03:40:16.046Z,3.43
2018-08-28T03:42:44.408Z,4.03
2018-08-28T03:45:12.634Z,3.93
2018-08-28T03:47:40.879Z,4.00
2018-08-28T03:50:09.092Z,3.63
2018-08-28T03:52:37.371Z,4.03
2018-08-28T03:55:05.564Z,3.30
2018-08-28T03:57:33.778Z,3.73
2018-08-28T04:00:02.297Z,3.80
2018-08-28T04:02:30.586Z,4.13
2018-08-28T04:04:58.904Z,3.93
2018-08-28T04:07:27.124Z,3.53
2018-08-28T04:09:55.346Z,3.67
2018-08-28T04:12:23.553Z,4.17
2018-08-28T04:14:51.766Z,4.40
2018-08-28T04:17:20.135Z,3.63
2018-08-28T04:19:48.302Z,4.07
2018-08-28T04:22:16.572Z,4.33
2018-08-28T04:24:44.762Z,4.17
2018-08-28T04:27:13.076Z,3.63
2018-08-28T04:29:41.223Z,4.20
2018-08-28T04:32:09.461Z,4.20
2018-08-28T04:34:37.698Z,4.40
2018-08-28T04:37:06.275Z,4.20
2018-08-28T04:39:34.432Z,4.33
2018-08-28T04:42:02.694Z,5.40
2018-08-28T04:44:30.937Z,4.70
2018-08-28T04:46:59.192Z,5.00
2018-08-28T04:49:27.407Z,4.53
2018-08-28T04:51:55.687Z,4.83
2018-08-28T04:54:24.045Z,4.70
2018-08-28T04:56:52.171Z,5.10
2018-08-28T04:59:20.385Z,4.67
2018-08-28T05:01:48.713Z,4.50
2018-08-28T05:04:16.983Z,4.33
2018-08-28T05:06:45.323Z,4.50
2018-08-28T05:09:13.611Z,4.47
2018-08-28T05:11:41.879Z,4.40
2018-08-28T05:14:10.037Z,5.13
2018-08-28T05:16:38.284Z,4.27
2018-08-28T05:19:06.576Z,4.20
2018-08-28T05:21:42.508Z,4.20
2018-08-28T05:24:10.822Z,4.47
2018-08-28T05:26:39.108Z,4.60
2018-08-28T05:29:07.369Z,4.60
2018-08-28T05:31:35.675Z,5.20
2018-08-28T05:34:04.004Z,5.37
2018-08-28T05:36:32.181Z,4.67
2018-08-28T05:39:00.465Z,4.47
2018-08-28T05:41:28.657Z,4.53
2018-08-28T05:43:56.918Z,4.77
2018-08-28T05:46:25.195Z,5.27
2018-08-28T05:48:53.475Z,4.73
2018-08-28T05:51:21.666Z,4.43
2018-08-28T05:53:49.944Z,5.00
2018-08-28T05:56:18.303Z,4.90
2018-08-28T05:58:46.480Z,5.30
2018-08-28T06:01:14.674Z,5.13
2018-08-28T06:03:45.018Z,4.93
2018-08-28T06:06:13.335Z,5.60
2018-08-28T06:08:41.757Z,5.30
2018-08-28T06:11:10.039Z,5.00
2018-08-28T06:13:38.343Z,5.53
2018-08-28T06:16:06.719Z,5.07
2018-08-28T06:18:35.352Z,5.07
2018-08-28T06:21:03.596Z,5.47
2018-08-28T06:23:31.857Z,5.17
2018-08-28T06:26:00.211Z,5.47
2018-08-28T06:28:28.460Z,5.23
2018-08-28T06:30:56.824Z,5.50
2018-08-28T06:33:25.402Z,6.00
2018-08-28T06:35:53.665Z,5.53
2018-08-28T06:38:21.867Z,5.53
2018-08-28T06:40:50.153Z,6.50
2018-08-28T06:43:18.415Z,6.77
2018-08-28T06:45:46.888Z,9.13
2018-08-28T06:48:15.407Z,9.63
2018-08-28T06:50:43.774Z,6.40
2018-08-28T06:53:12.115Z,5.67
2018-08-28T06:55:40.390Z,5.77
2018-08-28T06:58:08.849Z,5.80
2018-08-28T07:00:37.209Z,6.23
2018-08-28T07:03:05.552Z,6.10
2018-08-28T07:05:33.907Z,5.40
2018-08-28T07:08:02.150Z,5.07
2018-08-28T07:10:30.376Z,5.47
2018-08-28T07:12:58.672Z,5.47
2018-08-28T07:15:26.930Z,5.80
2018-08-28T07:17:55.221Z,5.70
2018-08-28T07:20:23.491Z,5.73
2018-08-28T07:22:51.725Z,5.10
2018-08-28T07:25:19.981Z,5.53
2018-08-28T07:27:48.229Z,5.77
2018-08-28T07:30:16.473Z,5.70
2018-08-28T07:32:45.260Z,5.23
2018-08-28T07:35:13.571Z,5.10
2018-08-28T07:37:42.003Z,6.43
2018-08-28T07:40:10.236Z,5.10
2018-08-28T07:42:38.535Z,4.93
2018-08-28T07:45:06.795Z,4.90
2018-08-28T07:47:35.189Z,4.93
2018-08-28T07:50:03.559Z,4.93
2018-08-28T07:52:31.905Z,4.60
2018-08-28T07:55:00.355Z,4.77
2018-08-28T07:57:28.680Z,4.13
2018-08-28T07:59:57.016Z,4.33
2018-08-28T08:02:25.648Z,4.63
2018-08-28T08:04:53.987Z,4.43
2018-08-28T08:07:22.203Z,4.33
2018-08-28T08:09:50.596Z,5.13
2018-08-28T08:12:20.118Z,4.17
2018-08-28T08:14:47.327Z,4.43
2018-08-28T08:17:15.566Z,4.00
2018-08-28T08:19:43.906Z,4.03
2018-08-28T08:22:12.289Z,3.67
2018-08-28T08:24:40.455Z,4.40
2018-08-28T08:27:08.936Z,4.73
2018-08-28T08:29:37.218Z,3.90
2018-08-28T08:32:05.506Z,4.33
2018-08-28T08:34:33.796Z,3.67
2018-08-28T08:37:02.121Z,3.60
2018-08-28T08:39:30.338Z,3.30
2018-08-28T08:41:58.702Z,3.53
2018-08-28T08:44:26.971Z,3.60
2018-08-28T08:46:55.263Z,3.30
2018-08-28T08:49:23.765Z,3.33
2018-08-28T08:51:52.062Z,3.10
2018-08-28T08:54:20.392Z,2.50
2018-08-28T08:56:52.023Z,2.90
2018-08-28T08:59:20.330Z,3.17
2018-08-28T09:01:48.637Z,2.77
2018-08-28T09:04:16.899Z,3.17
2018-08-28T09:06:45.249Z,2.73
2018-08-28T09:09:13.613Z,2.33
2018-08-28T09:11:42.005Z,2.90
2018-08-28T09:14:10.303Z,2.40
2018-08-28T09:16:38.628Z,1.80
2018-08-28T09:19:06.856Z,1.70
2018-08-28T09:21:36.250Z,1.90
2018-08-28T09:24:03.401Z,1.87
2018-08-28T09:26:31.704Z,1.93
2018-08-28T09:28:59.897Z,2.07
2018-08-28T09:31:28.286Z,3.23
2018-08-28T09:33:56.464Z,2.17
2018-08-28T09:36:24.721Z,1.93
2018-08-28T09:38:53.161Z,2.50
2018-08-28T09:41:21.526Z,3.03
2018-08-28T09:43:49.808Z,2.23
2018-08-28T09:46:18.107Z,2.17
2018-08-28T09:48:45.385Z,2.80
2018-08-28T09:51:13.757Z,2.60
2018-08-28T09:53:42.100Z,2.73
2018-08-28T09:56:10.523Z,2.57
2018-08-28T09:58:39.335Z,1.90
2018-08-28T10:01:25.512Z,2.17
2018-08-28T10:03:53.985Z,2.50
2018-08-28T10:06:22.332Z,2.63
2018-08-28T10:08:50.637Z,1.90
2018-08-28T10:11:18.891Z,2.30
2018-08-28T10:13:47.258Z,3.17
2018-08-28T10:16:18.259Z,4.13
2018-08-28T10:18:46.700Z,3.23
2018-08-28T10:21:14.901Z,2.10
2018-08-28T10:23:43.176Z,2.37
2018-08-28T10:26:11.426Z,3.33
2018-08-28T10:28:39.889Z,3.50
2018-08-28T10:31:08.236Z,2.50
2018-08-28T10:33:36.646Z,2.07
2018-08-28T10:36:05.029Z,2.13
2018-08-28T10:38:33.433Z,1.90
2018-08-28T10:41:01.723Z,2.40
2018-08-28T10:43:30.179Z,2.00
2018-08-28T10:46:01.535Z,2.43
2018-08-28T10:48:29.756Z,1.90
2018-08-28T10:50:58.109Z,3.90
2018-08-28T10:53:26.419Z,5.13
2018-08-28T10:55:54.767Z,6.33
2018-08-28T10:58:23.235Z,3.13
2018-08-28T11:00:51.441Z,3.27
2018-08-28T11:03:19.892Z,1.97
2018-08-28T11:05:48.869Z,2.57
2018-08-28T11:08:17.398Z,2.57
2018-08-28T11:10:49.074Z,2.20
2018-08-28T11:13:17.525Z,3.33
2018-08-28T11:15:45.857Z,2.33
2018-08-28T11:18:14.128Z,2.30
2018-08-28T11:20:42.411Z,1.90
2018-08-28T11:23:10.791Z,2.80
2018-08-28T11:25:39.017Z,2.77
2018-08-28T11:28:07.305Z,4.27
2018-08-28T11:30:35.606Z,4.60
2018-08-28T11:33:03.974Z,2.17
2018-08-28T11:35:34.677Z,2.37
2018-08-28T11:38:02.925Z,2.17
2018-08-28T11:40:31.182Z,2.50
2018-08-28T11:42:59.432Z,2.63
2018-08-28T11:45:27.932Z,2.73
2018-08-28T11:47:56.221Z,2.73
2018-08-28T11:50:30.222Z,2.57
2018-08-28T11:52:58.442Z,2.10
2018-08-28T11:55:26.703Z,2.07
2018-08-28T11:57:57.562Z,1.93
2018-08-28T12:00:25.825Z,2.10
2018-08-28T12:02:54.128Z,2.40
2018-08-28T12:05:22.414Z,2.03
2018-08-28T12:07:50.944Z,2.57
2018-08-28T12:10:21.380Z,2.63
2018-08-28T12:12:49.627Z,2.30
2018-08-28T12:15:18.373Z,2.30
2018-08-28T12:17:46.614Z,3.27
2018-08-28T12:20:14.946Z,3.43
2018-08-28T12:22:43.127Z,2.80
2018-08-28T12:25:11.522Z,4.43
2018-08-28T12:27:39.709Z,4.40
2018-08-28T12:30:09.237Z,2.50
2018-08-28T12:32:37.578Z,2.50
2018-08-28T12:35:06.599Z,2.70
2018-08-28T12:37:35.018Z,2.60
2018-08-28T12:40:06.523Z,2.43
2018-08-28T12:42:34.807Z,2.60
2018-08-28T12:45:03.149Z,2.80
2018-08-28T12:47:31.598Z,2.50
2018-08-28T12:49:59.927Z,3.00
2018-08-28T12:52:34.510Z,3.03
2018-08-28T12:55:02.965Z,2.57
2018-08-28T12:57:31.241Z,2.67
2018-08-28T12:59:59.619Z,2.70
2018-08-28T13:02:27.891Z,2.33
2018-08-28T13:04:56.143Z,2.43
2018-08-28T13:07:24.593Z,2.70
2018-08-28T13:09:52.746Z,2.23
2018-08-28T13:12:21.090Z,3.60
2018-08-28T13:14:49.435Z,3.10
2018-08-28T13:17:17.769Z,3.10
2018-08-28T13:19:46.286Z,3.00
2018-08-28T13:22:14.521Z,4.07
2018-08-28T13:24:42.893Z,3.37
2018-08-28T13:27:11.172Z,3.50
2018-08-28T13:29:39.540Z,4.03
2018-08-28T13:32:08.025Z,3.73
2018-08-28T13:34:36.415Z,3.33
2018-08-28T13:37:04.882Z,5.23
2018-08-28T13:39:33.112Z,3.83
2018-08-28T13:42:01.470Z,3.50
2018-08-28T13:44:29.737Z,3.97
2018-08-28T13:46:58.090Z,4.07
2018-08-28T13:49:26.293Z,3.87
2018-08-28T13:51:54.661Z,3.93
2018-08-28T13:54:23.009Z,4.60
2018-08-28T13:56:51.277Z,3.40
2018-08-28T13:59:19.968Z,3.53
2018-08-28T14:01:48.163Z,3.27
2018-08-28T14:04:16.408Z,3.60
2018-08-28T14:06:47.625Z,3.33
2018-08-28T14:09:17.222Z,3.40
2018-08-28T14:11:45.498Z,3.80
2018-08-28T14:14:13.694Z,3.80
2018-08-28T14:16:47.245Z,4.20
2018-08-28T14:19:15.615Z,3.87
2018-08-28T14:22:00.247Z,4.07
2018-08-28T14:24:28.576Z,3.20
2018-08-28T14:26:56.917Z,3.43
2018-08-28T14:29:25.554Z,3.33
2018-08-28T14:31:53.724Z,3.60
2018-08-28T14:34:22.153Z,3.47
2018-08-28T14:36:51.044Z,3.57
2018-08-28T14:39:19.492Z,3.93
2018-08-28T14:41:54.621Z,3.10
2018-08-28T14:44:23.241Z,3.07
2018-08-28T14:46:51.621Z,3.90
2018-08-28T14:49:32.520Z,3.50
2018-08-28T14:51:59.593Z,3.30
2018-08-28T14:54:27.962Z,3.00
2018-08-28T14:56:59.027Z,3.40
2018-08-28T14:59:27.503Z,3.03
2018-08-28T15:01:58.569Z,3.57
2018-08-28T15:04:26.850Z,4.37
2018-08-28T15:06:55.146Z,3.23
2018-08-28T15:09:23.682Z,3.63
2018-08-28T15:11:51.890Z,4.20
2018-08-28T15:14:20.271Z,3.60
2018-08-28T15:16:48.796Z,4.20
2018-08-28T15:19:17.094Z,3.47
2018-08-28T15:21:45.493Z,3.80
2018-08-28T15:24:16.558Z,4.40
2018-08-28T15:26:51.391Z,3.63
2018-08-28T15:29:23.491Z,4.20
2018-08-28T15:31:51.700Z,3.73
2018-08-28T15:34:22.253Z,3.67
2018-08-28T15:36:50.693Z,3.90
2018-08-28T15:39:22.117Z,3.70
2018-08-28T15:41:50.841Z,3.93
2018-08-28T15:44:19.157Z,3.87
2018-08-28T15:46:47.509Z,4.20
2018-08-28T15:49:15.862Z,4.10
2018-08-28T15:51:44.146Z,4.67
2018-08-28T15:54:12.415Z,3.67
2018-08-28T15:56:40.652Z,4.10
2018-08-28T15:59:09.019Z,5.17
2018-08-28T16:01:37.266Z,4.67
2018-08-28T16:04:13.231Z,3.30
2018-08-28T16:06:42.638Z,4.97
2018-08-28T16:09:11.016Z,4.70
2018-08-28T16:11:39.332Z,4.00
2018-08-28T16:14:07.723Z,4.17
2018-08-28T16:16:39.056Z,4.67
2018-08-28T16:19:07.743Z,6.47
2018-08-28T16:32:01.654Z,4.90
2018-08-28T16:34:30.240Z,6.50
2018-08-28T16:36:58.528Z,5.90
2018-08-28T16:39:26.876Z,4.60
2018-08-28T16:41:55.955Z,5.20
2018-08-28T16:44:46.464Z,6.60
2018-08-28T16:47:15.030Z,6.50
2018-08-28T16:49:43.210Z,7.93
2018-08-28T16:52:11.554Z,5.80
2018-08-28T16:54:39.970Z,4.80
2018-08-28T16:57:09.126Z,4.97
2018-08-28T16:59:37.523Z,4.60
2018-08-28T17:02:06.067Z,4.80
2018-08-28T17:04:35.550Z,4.80
2018-08-28T17:07:06.763Z,5.20
2018-08-28T17:09:40.722Z,5.77
2018-08-28T17:12:11.969Z,5.13
2018-08-28T17:14:47.049Z,4.50
2018-08-28T17:17:15.537Z,5.70
2018-08-28T17:19:43.763Z,5.50
2018-08-28T17:22:12.094Z,4.47
2018-08-28T17:24:40.460Z,4.30
2018-08-28T17:27:09.060Z,4.30
2018-08-28T17:29:37.533Z,3.80
2018-08-28T17:32:09.947Z,5.00
2018-08-28T17:34:38.241Z,4.40
2018-08-28T17:37:06.783Z,4.57
2018-08-28T17:39:35.485Z,4.63
2018-08-28T17:42:06.084Z,4.20
2018-08-28T17:44:33.325Z,4.77
2018-08-28T17:47:07.577Z,4.40
2018-08-28T17:49:36.739Z,5.07
2018-08-28T17:52:05.730Z,4.70
2018-08-28T17:54:34.578Z,3.90
2018-08-28T17:57:03.041Z,3.83
2018-08-28T17:59:31.862Z,4.37
2018-08-28T18:02:00.338Z,3.90
2018-08-28T18:04:28.848Z,3.87
2018-08-28T18:06:59.274Z,3.97
2018-08-28T18:09:27.745Z,4.60
2018-08-28T18:11:58.892Z,4.10
2018-08-28T18:14:30.255Z,5.67
2018-08-28T18:16:58.675Z,5.83
2018-08-28T18:22:39.686Z,4.60
2018-08-28T18:25:41.890Z,4.97
2018-08-28T18:28:10.111Z,4.80
2018-08-28T18:30:49.956Z,6.43
2018-08-28T18:33:28.924Z,4.50
2018-08-28T18:36:12.266Z,5.53
2018-08-28T18:38:45.000Z,4.37
2018-08-28T18:41:33.276Z,4.60
2018-08-28T18:44:52.246Z,4.37
2018-08-28T18:48:15.763Z,4.40
2018-08-28T18:51:25.452Z,8.00
2018-08-28T18:57:24.106Z,4.90
2018-08-28T19:00:19.946Z,4.90
2018-08-28T19:06:01.945Z,4.03
2018-08-28T19:08:51.628Z,4.60
2018-08-28T19:11:29.546Z,4.53
2018-08-28T19:14:52.228Z,4.63
2018-08-28T19:18:12.910Z,4.63
2018-08-28T19:21:15.606Z,6.10
2018-08-28T19:24:45.521Z,4.10
2018-08-28T19:27:46.472Z,4.50
2018-08-28T19:31:00.272Z,4.73
2018-08-28T19:34:18.549Z,3.93
2018-08-28T19:36:53.456Z,4.53
2018-08-28T19:39:41.591Z,3.80
2018-08-28T19:43:07.028Z,4.37
2018-08-28T19:45:59.543Z,4.67
2018-08-28T19:49:39.016Z,3.80
2018-08-28T19:52:30.257Z,4.47
2018-08-28T19:55:52.664Z,5.03
2018-08-28T19:58:49.225Z,4.17
2018-08-28T20:02:06.642Z,2.97
2018-08-28T20:04:43.442Z,3.23
2018-08-28T20:07:16.185Z,3.13
2018-08-28T20:10:00.309Z,3.27
2018-08-28T20:13:03.728Z,4.63
2018-08-28T20:16:16.847Z,4.40
2018-08-28T20:19:16.832Z,3.87
2018-08-28T20:22:08.548Z,3.70
2018-08-28T20:31:39.223Z,3.43
2018-08-28T20:34:18.766Z,3.33
2018-08-28T20:37:24.509Z,3.67
2018-08-28T20:39:50.210Z,3.10
2018-08-28T20:42:33.855Z,3.87
2018-08-28T20:45:48.020Z,3.70
2018-08-28T20:48:42.180Z,3.60
2018-08-28T20:51:34.018Z,3.53
2018-08-28T21:01:30.089Z,3.87
2018-08-28T21:04:14.658Z,3.53
2018-08-28T21:07:34.419Z,3.40
2018-08-28T21:11:09.843Z,3.40
2018-08-28T21:18:04.457Z,4.13
2018-08-28T21:20:46.858Z,3.13
2018-08-28T21:27:37.537Z,3.13
2018-08-28T21:30:41.827Z,3.67
2018-08-28T21:33:54.339Z,3.33
2018-08-28T21:37:01.804Z,3.50
2018-08-28T21:40:00.805Z,3.57
2018-08-28T21:43:17.216Z,3.73
2018-08-28T21:46:50.472Z,4.37
2018-08-28T21:53:10.970Z,3.47
2018-08-28T21:59:03.598Z,4.20
2018-08-28T22:01:36.769Z,4.00
2018-08-28T22:04:32.168Z,3.97
2018-08-28T22:07:34.483Z,3.87
2018-08-28T22:10:22.865Z,3.20
2018-08-28T22:13:51.329Z,4.13
2018-08-28T22:16:57.340Z,4.03
2018-08-28T22:20:02.303Z,3.60
2018-08-28T22:28:21.426Z,4.40
2018-08-28T22:30:39.281Z,4.27
2018-08-28T22:33:07.388Z,4.53
2018-08-28T22:35:35.476Z,4.13
2018-08-28T22:38:03.560Z,4.57
2018-08-28T22:40:31.643Z,4.20
2018-08-28T22:42:59.752Z,4.43
2018-08-28T22:45:27.832Z,4.77
2018-08-28T22:47:58.154Z,4.60
2018-08-28T22:50:30.194Z,4.73
2018-08-28T22:53:01.788Z,5.07
2018-08-28T22:55:33.501Z,4.53
2018-08-28T22:58:04.830Z,4.07
2018-08-28T23:00:37.238Z,5.47
2018-08-28T23:03:08.062Z,4.50
2018-08-28T23:05:40.033Z,4.70
2018-08-28T23:08:12.126Z,4.83
2018-08-28T23:10:43.568Z,5.00
2018-08-28T23:13:15.196Z,5.60
2018-08-28T23:15:44.871Z,5.83
2018-08-28T23:18:15.060Z,5.07
2018-08-28T23:20:43.141Z,5.40
2018-08-28T23:23:11.283Z,5.87
2018-08-28T23:25:39.333Z,6.67
2018-08-28T23:28:07.414Z,6.17
2018-08-28T23:30:35.495Z,6.17
2018-08-28T23:33:03.598Z,5.33
2018-08-28T23:35:31.663Z,5.30
2018-08-28T23:37:59.713Z,5.17
2018-08-28T23:40:27.776Z,6.93
2018-08-28T23:42:55.872Z,7.87
2018-08-28T23:45:23.942Z,7.90
2018-08-28T23:47:52.034Z,7.57
2018-08-28T23:50:20.095Z,5.93
2018-08-28T23:52:48.248Z,5.83
2018-08-28T23:55:16.279Z,5.10
2018-08-28T23:57:44.343Z,5.70
